Date,TemperatureHighF,TemperatureAvgF,TemperatureLowF,DewpointHighF,DewpointAvgF,DewpointLowF,HumidityHigh,HumidityAvg,HumidityLow,PressureMaxIn,PressureMinIn,WindSpeedMaxMPH,WindSpeedAvgMPH,GustSpeedMaxMPH,PrecipitationSumIn
2013-3-1,44.0,34.2,23.0,-99.9,-99.9,-99.9,0,0,100,0.00,40.00,3,-89,16,0.02
2013-3-2,53.0,36.8,20.0,-99.9,-99.9,-99.9,0,0,100,44.89,40.00,5,-83,13,0.01
2013-3-3,43.0,37.5,32.0,-99.9,-99.9,-99.9,0,0,100,0.00,40.00,5,-127,18,0.01
2013-3-4,43.0,33.2,24.0,-99.9,-99.9,-99.9,0,0,100,44.89,40.00,7,3,19,0.00
2013-3-5,45.0,28.6,15.0,-99.9,-99.9,-99.9,0,0,100,44.89,40.00,5,-156,14,0.01
2013-3-6,43.0,35.2,31.0,-99.9,-99.9,-99.9,0,0,100,0.00,40.00,7,-46,25,0.01
2013-3-7,41.0,34.3,30.0,-99.9,-99.9,-99.9,0,0,100,44.89,40.00,6,-275,21,0.00
2013-3-8,31.0,25.4,15.0,-99.9,-99.9,-99.9,0,0,100,0.00,40.00,7,-98,24,0.05
2013-3-9,31.0,22.1,16.0,-99.9,-99.9,-99.9,0,0,100,44.89,40.00,7,-37,20,0.02
2013-3-10,36.0,26.8,17.0,-99.9,-99.9,-99.9,0,0,100,44.89,40.00,5,-197,18,0.01
2013-3-11,48.0,34.1,16.0,-99.9,-99.9,-99.9,0,0,100,0.00,40.00,3,-152,9,0.01
2013-3-12,47.0,33.0,21.0,-99.9,-99.9,-99.9,0,0,100,0.00,40.00,2,-73,8,0.00
2013-3-13,52.0,35.8,24.0,-99.9,-99.9,-99.9,0,0,100,44.89,40.00,2,-258,8,0.00
2013-3-14,57.0,40.0,25.0,-99.9,-99.9,-99.9,0,0,100,44.89,40.00,2,-78,7,0.00
2013-3-15,56.0,44.0,31.0,-99.9,-99.9,-99.9,0,0,100,0.00,40.00,5,-39,14,0.00
2013-3-16,51.0,42.0,35.0,-99.9,-99.9,-99.9,0,0,100,0.00,40.00,4,2,14,0.00
2013-3-17,47.0,40.0,35.0,-99.9,-99.9,-99.9,0,0,100,0.00,40.00,4,-215,18,0.00
2013-3-18,47.0,39.5,34.0,-99.9,-99.9,-99.9,0,0,100,0.00,40.00,5,4,19,0.00
2013-3-19,43.0,36.7,27.0,-99.9,-99.9,-99.9,0,0,100,44.89,40.00,3,-58,16,0.00
2013-3-20,44.0,38.5,30.0,-99.9,-99.9,-99.9,0,0,100,44.89,40.00,5,-37,17,0.01
2013-3-21,48.0,40.3,33.0,-99.9,-99.9,-99.9,0,0,100,44.89,40.00,5,-209,18,0.00
2013-3-22,44.0,35.9,27.0,-99.9,-99.9,-99.9,0,0,100,0.00,40.00,6,-43,25,0.00
2013-3-23,35.0,28.7,23.0,-99.9,-99.9,-99.9,0,0,100,44.89,40.00,6,-197,26,0.00
2013-3-24,40.0,30.0,22.0,-99.9,-99.9,-99.9,0,0,100,44.89,40.00,4,-319,16,0.00
2013-3-25,46.0,35.3,22.0,-99.9,-99.9,-99.9,0,0,100,44.89,40.00,3,-37,14,0.00
2013-3-26,45.0,38.0,33.0,-99.9,-99.9,-99.9,0,0,100,0.00,40.00,4,-39,15,0.01
2013-3-27,47.0,38.7,35.0,-99.9,-99.9,-99.9,0,0,100,44.89,40.00,5,-264,16,0.00
2013-3-28,48.0,39.5,34.0,-99.9,-99.9,-99.9,0,0,100,44.89,40.00,6,-237,17,0.00
2013-3-29,49.0,40.0,29.0,-99.9,-99.9,-99.9,0,0,100,0.00,40.00,2,-230,9,0.00
2013-3-30,49.0,38.7,30.0,-99.9,-99.9,-99.9,0,0,100,0.00,40.00,3,-184,10,0.00
2013-3-31,51.0,40.0,29.0,-99.9,-99.9,-99.9,0,0,100,0.00,40.00,3,-295,13,0.00